sensor_id;sensor_type;location;lat;lon;timestamp;P1;durP1;ratioP1;P2;durP2;ratioP2
5428;SDS011;2737;52.386;9.980;2023-04-16T00:00:09;33.10;;;21.30;;
5428;SDS011;2737;52.386;9.980;2023-04-16T00:02:36;33.97;;;21.23;;
5428;SDS011;2737;52.386;9.980;2023-04-16T00:05:03;42.70;;;20.63;;
5428;SDS011;2737;52.386;9.980;2023-04-16T00:07:32;29.47;;;19.10;;
5428;SDS011;2737;52.386;9.980;2023-04-16T00:09:59;33.67;;;20.37;;
5428;SDS011;2737;52.386;9.980;2023-04-16T00:12:26;35.00;;;20.47;;
5428;SDS011;2737;52.386;9.980;2023-04-16T00:14:53;32.63;;;19.47;;
5428;SDS011;2737;52.386;9.980;2023-04-16T00:17:20;37.20;;;21.20;;
5428;SDS011;2737;52.386;9.980;2023-04-16T00:19:47;34.33;;;20.90;;
5428;SDS011;2737;52.386;9.980;2023-04-16T00:22:14;31.93;;;21.57;;
5428;SDS011;2737;52.386;9.980;2023-04-16T00:24:43;35.53;;;20.30;;
5428;SDS011;2737;52.386;9.980;2023-04-16T00:27:10;39.23;;;20.50;;
5428;SDS011;2737;52.386;9.980;2023-04-16T00:29:37;32.10;;;21.40;;
5428;SDS011;2737;52.386;9.980;2023-04-16T00:32:03;31.60;;;20.77;;
5428;SDS011;2737;52.386;9.980;2023-04-16T00:34:31;43.13;;;21.77;;
5428;SDS011;2737;52.386;9.980;2023-04-16T00:36:58;38.70;;;22.47;;
5428;SDS011;2737;52.386;9.980;2023-04-16T00:39:25;38.00;;;21.93;;
5428;SDS011;2737;52.386;9.980;2023-04-16T00:41:54;40.30;;;21.10;;
5428;SDS011;2737;52.386;9.980;2023-04-16T00:44:21;35.83;;;22.93;;
5428;SDS011;2737;52.386;9.980;2023-04-16T00:46:48;37.00;;;23.93;;
5428;SDS011;2737;52.386;9.980;2023-04-16T00:49:16;33.17;;;21.97;;
5428;SDS011;2737;52.386;9.980;2023-04-16T00:51:43;41.70;;;22.97;;
5428;SDS011;2737;52.386;9.980;2023-04-16T00:54:10;38.03;;;24.33;;
5428;SDS011;2737;52.386;9.980;2023-04-16T00:56:37;40.10;;;25.23;;
5428;SDS011;2737;52.386;9.980;2023-04-16T00:59:06;40.90;;;23.60;;
5428;SDS011;2737;52.386;9.980;2023-04-16T01:01:33;41.73;;;25.30;;
5428;SDS011;2737;52.386;9.980;2023-04-16T01:04:00;46.77;;;26.60;;
5428;SDS011;2737;52.386;9.980;2023-04-16T01:06:27;36.00;;;23.80;;
5428;SDS011;2737;52.386;9.980;2023-04-16T01:08:54;41.60;;;24.43;;
5428;SDS011;2737;52.386;9.980;2023-04-16T01:11:21;44.13;;;23.63;;
5428;SDS011;2737;52.386;9.980;2023-04-16T01:13:49;39.97;;;23.87;;
5428;SDS011;2737;52.386;9.980;2023-04-16T01:16:17;41.90;;;23.10;;
5428;SDS011;2737;52.386;9.980;2023-04-16T01:18:45;43.83;;;26.03;;
5428;SDS011;2737;52.386;9.980;2023-04-16T01:21:13;41.03;;;25.17;;
5428;SDS011;2737;52.386;9.980;2023-04-16T01:23:40;48.53;;;24.97;;
5428;SDS011;2737;52.386;9.980;2023-04-16T01:26:07;44.50;;;24.80;;
5428;SDS011;2737;52.386;9.980;2023-04-16T01:28:34;43.63;;;25.43;;
5428;SDS011;2737;52.386;9.980;2023-04-16T01:31:01;45.63;;;24.87;;
5428;SDS011;2737;52.386;9.980;2023-04-16T01:33:28;46.43;;;25.73;;
5428;SDS011;2737;52.386;9.980;2023-04-16T01:35:55;45.20;;;25.90;;
5428;SDS011;2737;52.386;9.980;2023-04-16T01:38:23;41.07;;;25.17;;
5428;SDS011;2737;52.386;9.980;2023-04-16T01:40:54;50.10;;;25.20;;
5428;SDS011;2737;52.386;9.980;2023-04-16T01:43:21;42.50;;;25.03;;
5428;SDS011;2737;52.386;9.980;2023-04-16T01:45:48;41.97;;;23.87;;
5428;SDS011;2737;52.386;9.980;2023-04-16T01:48:15;38.73;;;23.10;;
5428;SDS011;2737;52.386;9.980;2023-04-16T01:50:42;43.27;;;24.87;;
5428;SDS011;2737;52.386;9.980;2023-04-16T01:53:09;41.63;;;25.50;;
5428;SDS011;2737;52.386;9.980;2023-04-16T01:55:38;42.57;;;24.03;;
5428;SDS011;2737;52.386;9.980;2023-04-16T01:58:05;40.40;;;24.87;;
5428;SDS011;2737;52.386;9.980;2023-04-16T02:00:35;43.47;;;25.83;;
5428;SDS011;2737;52.386;9.980;2023-04-16T02:03:02;44.73;;;25.80;;
5428;SDS011;2737;52.386;9.980;2023-04-16T02:05:29;45.00;;;25.13;;
5428;SDS011;2737;52.386;9.980;2023-04-16T02:07:56;52.37;;;27.47;;
5428;SDS011;2737;52.386;9.980;2023-04-16T02:10:23;41.47;;;25.40;;
5428;SDS011;2737;52.386;9.980;2023-04-16T02:12:51;44.07;;;23.67;;
5428;SDS011;2737;52.386;9.980;2023-04-16T02:15:18;48.77;;;27.27;;
5428;SDS011;2737;52.386;9.980;2023-04-16T02:17:45;50.93;;;26.93;;
5428;SDS011;2737;52.386;9.980;2023-04-16T02:20:15;52.67;;;25.37;;
5428;SDS011;2737;52.386;9.980;2023-04-16T02:22:42;45.03;;;25.30;;
5428;SDS011;2737;52.386;9.980;2023-04-16T02:25:09;45.00;;;25.17;;
5428;SDS011;2737;52.386;9.980;2023-04-16T02:27:38;46.20;;;24.80;;
5428;SDS011;2737;52.386;9.980;2023-04-16T02:30:07;47.20;;;25.23;;
5428;SDS011;2737;52.386;9.980;2023-04-16T02:32:35;52.97;;;26.70;;
5428;SDS011;2737;52.386;9.980;2023-04-16T02:35:02;49.37;;;27.57;;
5428;SDS011;2737;52.386;9.980;2023-04-16T02:37:29;51.83;;;27.40;;
5428;SDS011;2737;52.386;9.980;2023-04-16T02:39:56;51.97;;;26.33;;
5428;SDS011;2737;52.386;9.980;2023-04-16T02:42:23;56.47;;;28.10;;
5428;SDS011;2737;52.386;9.980;2023-04-16T02:44:50;44.90;;;26.30;;
5428;SDS011;2737;52.386;9.980;2023-04-16T02:47:19;49.40;;;26.40;;
5428;SDS011;2737;52.386;9.980;2023-04-16T02:49:46;52.00;;;26.87;;
5428;SDS011;2737;52.386;9.980;2023-04-16T02:52:13;46.80;;;26.17;;
5428;SDS011;2737;52.386;9.980;2023-04-16T02:54:40;52.43;;;25.07;;
5428;SDS011;2737;52.386;9.980;2023-04-16T02:57:07;47.43;;;25.93;;
5428;SDS011;2737;52.386;9.980;2023-04-16T02:59:34;51.10;;;27.33;;
5428;SDS011;2737;52.386;9.980;2023-04-16T03:02:01;54.70;;;27.00;;
5428;SDS011;2737;52.386;9.980;2023-04-16T03:04:29;52.23;;;27.43;;
5428;SDS011;2737;52.386;9.980;2023-04-16T03:06:58;55.53;;;27.00;;
5428;SDS011;2737;52.386;9.980;2023-04-16T03:09:25;54.93;;;28.67;;
5428;SDS011;2737;52.386;9.980;2023-04-16T03:11:52;53.13;;;27.33;;
5428;SDS011;2737;52.386;9.980;2023-04-16T03:14:19;52.60;;;28.40;;
5428;SDS011;2737;52.386;9.980;2023-04-16T03:16:46;49.33;;;27.47;;
5428;SDS011;2737;52.386;9.980;2023-04-16T03:19:13;51.37;;;26.40;;
5428;SDS011;2737;52.386;9.980;2023-04-16T03:21:41;49.13;;;27.23;;
5428;SDS011;2737;52.386;9.980;2023-04-16T03:24:08;56.27;;;28.30;;
5428;SDS011;2737;52.386;9.980;2023-04-16T03:26:35;54.20;;;26.57;;
5428;SDS011;2737;52.386;9.980;2023-04-16T03:29:02;57.17;;;28.03;;
5428;SDS011;2737;52.386;9.980;2023-04-16T03:31:29;55.80;;;27.67;;
5428;SDS011;2737;52.386;9.980;2023-04-16T03:33:56;51.10;;;28.03;;
5428;SDS011;2737;52.386;9.980;2023-04-16T03:36:23;50.53;;;27.37;;
5428;SDS011;2737;52.386;9.980;2023-04-16T03:38:52;56.77;;;28.57;;
5428;SDS011;2737;52.386;9.980;2023-04-16T03:41:19;54.03;;;26.90;;
5428;SDS011;2737;52.386;9.980;2023-04-16T03:43:46;51.90;;;26.70;;
5428;SDS011;2737;52.386;9.980;2023-04-16T03:46:13;52.13;;;27.23;;
5428;SDS011;2737;52.386;9.980;2023-04-16T03:48:40;46.63;;;25.33;;
5428;SDS011;2737;52.386;9.980;2023-04-16T03:51:07;49.33;;;26.63;;
5428;SDS011;2737;52.386;9.980;2023-04-16T03:53:34;48.23;;;24.93;;
5428;SDS011;2737;52.386;9.980;2023-04-16T03:56:03;51.67;;;26.97;;
5428;SDS011;2737;52.386;9.980;2023-04-16T03:58:30;44.77;;;25.80;;
5428;SDS011;2737;52.386;9.980;2023-04-16T04:00:57;59.03;;;25.83;;
5428;SDS011;2737;52.386;9.980;2023-04-16T04:03:24;53.77;;;26.10;;
5428;SDS011;2737;52.386;9.980;2023-04-16T04:05:51;45.07;;;24.40;;
5428;SDS011;2737;52.386;9.980;2023-04-16T04:08:18;49.20;;;26.57;;
5428;SDS011;2737;52.386;9.980;2023-04-16T04:10:45;49.53;;;25.97;;
5428;SDS011;2737;52.386;9.980;2023-04-16T04:13:14;47.10;;;24.80;;
5428;SDS011;2737;52.386;9.980;2023-04-16T04:15:41;54.13;;;25.50;;
5428;SDS011;2737;52.386;9.980;2023-04-16T04:18:09;43.50;;;25.90;;
5428;SDS011;2737;52.386;9.980;2023-04-16T04:20:37;45.30;;;26.80;;
5428;SDS011;2737;52.386;9.980;2023-04-16T04:23:05;53.70;;;28.60;;
5428;SDS011;2737;52.386;9.980;2023-04-16T04:25:32;53.87;;;26.47;;
5428;SDS011;2737;52.386;9.980;2023-04-16T04:27:59;49.20;;;25.90;;
5428;SDS011;2737;52.386;9.980;2023-04-16T04:30:27;55.93;;;26.30;;
5428;SDS011;2737;52.386;9.980;2023-04-16T04:32:54;54.90;;;26.73;;
5428;SDS011;2737;52.386;9.980;2023-04-16T04:35:21;48.77;;;25.57;;
5428;SDS011;2737;52.386;9.980;2023-04-16T04:37:48;53.67;;;26.77;;
5428;SDS011;2737;52.386;9.980;2023-04-16T04:40:15;53.23;;;26.67;;
5428;SDS011;2737;52.386;9.980;2023-04-16T04:42:42;60.17;;;27.37;;
5428;SDS011;2737;52.386;9.980;2023-04-16T04:45:09;48.53;;;25.43;;
5428;SDS011;2737;52.386;9.980;2023-04-16T04:47:38;51.53;;;25.87;;
5428;SDS011;2737;52.386;9.980;2023-04-16T04:50:05;50.00;;;27.07;;
5428;SDS011;2737;52.386;9.980;2023-04-16T04:52:33;57.47;;;27.60;;
5428;SDS011;2737;52.386;9.980;2023-04-16T04:55:00;50.27;;;24.70;;
5428;SDS011;2737;52.386;9.980;2023-04-16T04:57:27;50.03;;;24.87;;
5428;SDS011;2737;52.386;9.980;2023-04-16T04:59:54;59.23;;;26.47;;
5428;SDS011;2737;52.386;9.980;2023-04-16T05:02:21;50.47;;;24.87;;
5428;SDS011;2737;52.386;9.980;2023-04-16T05:04:50;40.60;;;23.63;;
5428;SDS011;2737;52.386;9.980;2023-04-16T05:07:17;44.33;;;23.37;;
5428;SDS011;2737;52.386;9.980;2023-04-16T05:09:44;42.87;;;23.90;;
5428;SDS011;2737;52.386;9.980;2023-04-16T05:12:11;50.87;;;24.60;;
5428;SDS011;2737;52.386;9.980;2023-04-16T05:14:38;42.30;;;22.53;;
5428;SDS011;2737;52.386;9.980;2023-04-16T05:17:05;44.17;;;23.43;;
5428;SDS011;2737;52.386;9.980;2023-04-16T05:19:32;39.30;;;21.90;;
5428;SDS011;2737;52.386;9.980;2023-04-16T05:22:01;43.93;;;23.13;;
5428;SDS011;2737;52.386;9.980;2023-04-16T05:24:28;39.30;;;22.47;;
5428;SDS011;2737;52.386;9.980;2023-04-16T05:26:55;48.63;;;23.03;;
5428;SDS011;2737;52.386;9.980;2023-04-16T05:29:22;41.40;;;22.10;;
5428;SDS011;2737;52.386;9.980;2023-04-16T05:31:50;44.57;;;23.27;;
5428;SDS011;2737;52.386;9.980;2023-04-16T05:34:17;45.90;;;24.43;;
5428;SDS011;2737;52.386;9.980;2023-04-16T05:36:44;45.00;;;22.33;;
5428;SDS011;2737;52.386;9.980;2023-04-16T05:39:12;39.70;;;21.90;;
5428;SDS011;2737;52.386;9.980;2023-04-16T05:41:39;43.33;;;23.37;;
5428;SDS011;2737;52.386;9.980;2023-04-16T05:44:06;38.57;;;22.07;;
5428;SDS011;2737;52.386;9.980;2023-04-16T05:46:33;38.23;;;22.23;;
5428;SDS011;2737;52.386;9.980;2023-04-16T05:49:00;40.67;;;21.20;;
5428;SDS011;2737;52.386;9.980;2023-04-16T05:51:27;42.40;;;22.77;;
5428;SDS011;2737;52.386;9.980;2023-04-16T05:53:54;40.00;;;21.20;;
5428;SDS011;2737;52.386;9.980;2023-04-16T05:56:23;45.07;;;22.07;;
5428;SDS011;2737;52.386;9.980;2023-04-16T05:58:50;46.90;;;22.10;;
5428;SDS011;2737;52.386;9.980;2023-04-16T06:01:17;39.97;;;20.50;;
5428;SDS011;2737;52.386;9.980;2023-04-16T06:03:44;44.23;;;22.20;;
5428;SDS011;2737;52.386;9.980;2023-04-16T06:06:11;38.73;;;22.17;;
5428;SDS011;2737;52.386;9.980;2023-04-16T06:08:38;42.87;;;20.57;;
5428;SDS011;2737;52.386;9.980;2023-04-16T06:11:05;38.43;;;20.13;;
5428;SDS011;2737;52.386;9.980;2023-04-16T06:13:33;37.40;;;21.43;;
5428;SDS011;2737;52.386;9.980;2023-04-16T06:16:00;36.83;;;20.00;;
5428;SDS011;2737;52.386;9.980;2023-04-16T06:18:27;39.27;;;21.40;;
5428;SDS011;2737;52.386;9.980;2023-04-16T06:20:54;39.93;;;20.67;;
5428;SDS011;2737;52.386;9.980;2023-04-16T06:23:22;37.80;;;20.87;;
5428;SDS011;2737;52.386;9.980;2023-04-16T06:25:50;39.27;;;20.70;;
5428;SDS011;2737;52.386;9.980;2023-04-16T06:28:17;39.07;;;19.97;;
5428;SDS011;2737;52.386;9.980;2023-04-16T06:30:45;38.60;;;20.47;;
5428;SDS011;2737;52.386;9.980;2023-04-16T06:33:12;33.53;;;19.63;;
5428;SDS011;2737;52.386;9.980;2023-04-16T06:35:39;39.33;;;19.33;;
5428;SDS011;2737;52.386;9.980;2023-04-16T06:38:06;38.27;;;19.77;;
5428;SDS011;2737;52.386;9.980;2023-04-16T06:40:33;34.53;;;19.40;;
5428;SDS011;2737;52.386;9.980;2023-04-16T06:43:01;32.27;;;18.37;;
5428;SDS011;2737;52.386;9.980;2023-04-16T06:45:28;30.63;;;18.17;;
5428;SDS011;2737;52.386;9.980;2023-04-16T06:47:57;32.70;;;17.87;;
5428;SDS011;2737;52.386;9.980;2023-04-16T06:50:25;42.17;;;19.60;;
5428;SDS011;2737;52.386;9.980;2023-04-16T06:52:53;28.93;;;17.23;;
5428;SDS011;2737;52.386;9.980;2023-04-16T06:55:21;32.13;;;17.13;;
5428;SDS011;2737;52.386;9.980;2023-04-16T06:57:48;36.13;;;17.93;;
5428;SDS011;2737;52.386;9.980;2023-04-16T07:00:15;32.30;;;17.03;;
5428;SDS011;2737;52.386;9.980;2023-04-16T07:02:42;31.33;;;17.23;;
5428;SDS011;2737;52.386;9.980;2023-04-16T07:05:11;34.53;;;16.60;;
5428;SDS011;2737;52.386;9.980;2023-04-16T07:07:38;29.23;;;17.80;;
5428;SDS011;2737;52.386;9.980;2023-04-16T07:10:05;28.87;;;16.90;;
5428;SDS011;2737;52.386;9.980;2023-04-16T07:12:33;30.13;;;17.60;;
5428;SDS011;2737;52.386;9.980;2023-04-16T07:15:00;35.60;;;16.60;;
5428;SDS011;2737;52.386;9.980;2023-04-16T07:17:27;24.97;;;15.27;;
5428;SDS011;2737;52.386;9.980;2023-04-16T07:19:54;31.50;;;16.83;;
5428;SDS011;2737;52.386;9.980;2023-04-16T07:22:22;23.80;;;14.87;;
5428;SDS011;2737;52.386;9.980;2023-04-16T07:24:49;36.07;;;16.70;;
5428;SDS011;2737;52.386;9.980;2023-04-16T07:27:16;29.67;;;15.33;;
5428;SDS011;2737;52.386;9.980;2023-04-16T07:29:44;27.63;;;15.00;;
5428;SDS011;2737;52.386;9.980;2023-04-16T07:32:11;25.33;;;15.40;;
5428;SDS011;2737;52.386;9.980;2023-04-16T07:34:38;26.70;;;15.50;;
5428;SDS011;2737;52.386;9.980;2023-04-16T07:37:05;32.10;;;17.10;;
5428;SDS011;2737;52.386;9.980;2023-04-16T07:39:33;33.67;;;15.80;;
5428;SDS011;2737;52.386;9.980;2023-04-16T07:42:00;26.40;;;15.67;;
5428;SDS011;2737;52.386;9.980;2023-04-16T07:44:27;28.30;;;15.50;;
5428;SDS011;2737;52.386;9.980;2023-04-16T07:46:55;26.27;;;15.90;;
5428;SDS011;2737;52.386;9.980;2023-04-16T07:49:22;25.23;;;15.13;;
5428;SDS011;2737;52.386;9.980;2023-04-16T07:51:49;27.57;;;14.40;;
5428;SDS011;2737;52.386;9.980;2023-04-16T07:54:16;27.50;;;15.50;;
5428;SDS011;2737;52.386;9.980;2023-04-16T07:56:45;25.47;;;15.40;;
5428;SDS011;2737;52.386;9.980;2023-04-16T07:59:12;28.50;;;15.97;;
5428;SDS011;2737;52.386;9.980;2023-04-16T08:01:39;23.97;;;14.33;;
5428;SDS011;2737;52.386;9.980;2023-04-16T08:04:06;27.73;;;15.47;;
5428;SDS011;2737;52.386;9.980;2023-04-16T08:06:33;28.70;;;16.10;;
5428;SDS011;2737;52.386;9.980;2023-04-16T08:09:00;30.93;;;15.00;;
5428;SDS011;2737;52.386;9.980;2023-04-16T08:11:27;24.63;;;14.57;;
5428;SDS011;2737;52.386;9.980;2023-04-16T08:13:55;28.87;;;15.47;;
5428;SDS011;2737;52.386;9.980;2023-04-16T08:16:22;32.50;;;15.53;;
5428;SDS011;2737;52.386;9.980;2023-04-16T08:18:49;24.50;;;13.60;;
5428;SDS011;2737;52.386;9.980;2023-04-16T08:21:16;28.73;;;14.53;;
5428;SDS011;2737;52.386;9.980;2023-04-16T08:23:43;23.43;;;14.20;;
5428;SDS011;2737;52.386;9.980;2023-04-16T08:26:10;23.13;;;14.33;;
5428;SDS011;2737;52.386;9.980;2023-04-16T08:28:38;30.40;;;15.03;;
5428;SDS011;2737;52.386;9.980;2023-04-16T08:31:06;21.70;;;13.27;;
5428;SDS011;2737;52.386;9.980;2023-04-16T08:33:33;29.20;;;13.43;;
5428;SDS011;2737;52.386;9.980;2023-04-16T08:36:00;22.23;;;12.53;;
5428;SDS011;2737;52.386;9.980;2023-04-16T08:38:27;24.50;;;14.30;;
5428;SDS011;2737;52.386;9.980;2023-04-16T08:40:54;26.87;;;14.33;;
5428;SDS011;2737;52.386;9.980;2023-04-16T08:43:22;24.53;;;14.00;;
5428;SDS011;2737;52.386;9.980;2023-04-16T08:45:50;23.00;;;13.87;;
5428;SDS011;2737;52.386;9.980;2023-04-16T08:48:22;29.50;;;14.13;;
5428;SDS011;2737;52.386;9.980;2023-04-16T08:50:51;22.40;;;12.23;;
5428;SDS011;2737;52.386;9.980;2023-04-16T08:53:20;23.77;;;13.93;;
5428;SDS011;2737;52.386;9.980;2023-04-16T08:55:52;24.50;;;14.63;;
5428;SDS011;2737;52.386;9.980;2023-04-16T08:58:24;28.77;;;14.00;;
5428;SDS011;2737;52.386;9.980;2023-04-16T09:00:59;26.23;;;14.67;;
5428;SDS011;2737;52.386;9.980;2023-04-16T09:03:30;24.33;;;13.57;;
5428;SDS011;2737;52.386;9.980;2023-04-16T09:05:57;25.77;;;14.07;;
5428;SDS011;2737;52.386;9.980;2023-04-16T09:08:25;31.40;;;13.63;;
5428;SDS011;2737;52.386;9.980;2023-04-16T09:10:52;24.77;;;13.93;;
5428;SDS011;2737;52.386;9.980;2023-04-16T09:13:21;21.53;;;13.90;;
5428;SDS011;2737;52.386;9.980;2023-04-16T09:15:50;25.57;;;13.77;;
5428;SDS011;2737;52.386;9.980;2023-04-16T09:18:18;24.10;;;12.73;;
5428;SDS011;2737;52.386;9.980;2023-04-16T09:20:47;24.40;;;14.07;;
5428;SDS011;2737;52.386;9.980;2023-04-16T09:23:16;20.97;;;13.10;;
5428;SDS011;2737;52.386;9.980;2023-04-16T09:25:43;30.37;;;14.90;;
5428;SDS011;2737;52.386;9.980;2023-04-16T09:28:10;24.07;;;13.73;;
5428;SDS011;2737;52.386;9.980;2023-04-16T09:30:37;25.27;;;14.63;;
5428;SDS011;2737;52.386;9.980;2023-04-16T09:33:13;24.53;;;14.40;;
5428;SDS011;2737;52.386;9.980;2023-04-16T09:35:48;23.27;;;13.87;;
5428;SDS011;2737;52.386;9.980;2023-04-16T09:38:15;24.60;;;13.57;;
5428;SDS011;2737;52.386;9.980;2023-04-16T09:40:43;23.07;;;13.77;;
5428;SDS011;2737;52.386;9.980;2023-04-16T09:43:11;21.17;;;13.37;;
5428;SDS011;2737;52.386;9.980;2023-04-16T09:45:47;28.60;;;14.23;;
5428;SDS011;2737;52.386;9.980;2023-04-16T09:48:15;19.87;;;12.97;;
5428;SDS011;2737;52.386;9.980;2023-04-16T09:50:54;24.63;;;13.93;;
5428;SDS011;2737;52.386;9.980;2023-04-16T09:53:22;29.10;;;14.33;;
5428;SDS011;2737;52.386;9.980;2023-04-16T09:55:50;22.57;;;13.27;;
5428;SDS011;2737;52.386;9.980;2023-04-16T09:58:17;22.30;;;12.93;;
5428;SDS011;2737;52.386;9.980;2023-04-16T10:00:45;23.43;;;13.90;;
5428;SDS011;2737;52.386;9.980;2023-04-16T10:03:12;27.50;;;13.30;;
5428;SDS011;2737;52.386;9.980;2023-04-16T10:05:39;28.57;;;16.50;;
5428;SDS011;2737;52.386;9.980;2023-04-16T10:08:11;31.97;;;14.90;;
5428;SDS011;2737;52.386;9.980;2023-04-16T10:10:39;30.97;;;16.73;;
5428;SDS011;2737;52.386;9.980;2023-04-16T10:13:07;30.53;;;16.67;;
5428;SDS011;2737;52.386;9.980;2023-04-16T10:15:34;30.53;;;16.83;;
5428;SDS011;2737;52.386;9.980;2023-04-16T10:18:04;28.73;;;17.90;;
5428;SDS011;2737;52.386;9.980;2023-04-16T10:20:31;29.60;;;18.20;;
5428;SDS011;2737;52.386;9.980;2023-04-16T10:22:59;30.40;;;18.00;;
5428;SDS011;2737;52.386;9.980;2023-04-16T10:25:28;30.43;;;18.30;;
5428;SDS011;2737;52.386;9.980;2023-04-16T10:27:57;31.90;;;18.23;;
5428;SDS011;2737;52.386;9.980;2023-04-16T10:30:25;33.10;;;19.03;;
5428;SDS011;2737;52.386;9.980;2023-04-16T10:32:53;32.60;;;18.80;;
5428;SDS011;2737;52.386;9.980;2023-04-16T10:35:21;34.60;;;20.20;;
5428;SDS011;2737;52.386;9.980;2023-04-16T10:37:54;36.40;;;20.13;;
5428;SDS011;2737;52.386;9.980;2023-04-16T10:40:22;34.17;;;19.53;;
5428;SDS011;2737;52.386;9.980;2023-04-16T10:42:55;36.77;;;20.57;;
5428;SDS011;2737;52.386;9.980;2023-04-16T10:45:29;38.77;;;20.80;;
5428;SDS011;2737;52.386;9.980;2023-04-16T10:47:56;38.13;;;20.60;;
5428;SDS011;2737;52.386;9.980;2023-04-16T10:50:24;32.13;;;20.07;;
5428;SDS011;2737;52.386;9.980;2023-04-16T10:53:18;42.10;;;21.30;;
5428;SDS011;2737;52.386;9.980;2023-04-16T10:55:55;35.10;;;22.73;;
5428;SDS011;2737;52.386;9.980;2023-04-16T10:58:39;36.27;;;21.67;;
5428;SDS011;2737;52.386;9.980;2023-04-16T11:01:09;47.60;;;23.80;;
5428;SDS011;2737;52.386;9.980;2023-04-16T11:03:41;34.97;;;21.63;;
5428;SDS011;2737;52.386;9.980;2023-04-16T11:06:12;37.53;;;21.57;;
5428;SDS011;2737;52.386;9.980;2023-04-16T11:08:42;36.73;;;21.60;;
5428;SDS011;2737;52.386;9.980;2023-04-16T11:11:11;39.50;;;22.00;;
5428;SDS011;2737;52.386;9.980;2023-04-16T11:13:41;36.90;;;21.53;;
5428;SDS011;2737;52.386;9.980;2023-04-16T11:16:09;36.57;;;21.90;;
5428;SDS011;2737;52.386;9.980;2023-04-16T11:18:38;45.63;;;23.00;;
5428;SDS011;2737;52.386;9.980;2023-04-16T11:21:06;36.50;;;22.67;;
5428;SDS011;2737;52.386;9.980;2023-04-16T11:23:44;42.07;;;23.23;;
5428;SDS011;2737;52.386;9.980;2023-04-16T11:26:19;40.03;;;22.33;;
5428;SDS011;2737;52.386;9.980;2023-04-16T11:28:51;38.83;;;22.60;;
5428;SDS011;2737;52.386;9.980;2023-04-16T11:31:19;38.97;;;21.47;;
5428;SDS011;2737;52.386;9.980;2023-04-16T11:33:47;39.60;;;24.07;;
5428;SDS011;2737;52.386;9.980;2023-04-16T11:36:14;38.13;;;22.70;;
5428;SDS011;2737;52.386;9.980;2023-04-16T11:38:41;37.23;;;23.47;;
5428;SDS011;2737;52.386;9.980;2023-04-16T11:41:08;42.73;;;22.53;;
5428;SDS011;2737;52.386;9.980;2023-04-16T11:43:38;38.87;;;23.10;;
5428;SDS011;2737;52.386;9.980;2023-04-16T11:46:06;40.63;;;23.50;;
5428;SDS011;2737;52.386;9.980;2023-04-16T11:48:46;35.37;;;22.87;;
5428;SDS011;2737;52.386;9.980;2023-04-16T11:51:14;41.83;;;22.60;;
5428;SDS011;2737;52.386;9.980;2023-04-16T11:53:45;46.37;;;24.93;;
5428;SDS011;2737;52.386;9.980;2023-04-16T11:56:13;41.70;;;24.10;;
5428;SDS011;2737;52.386;9.980;2023-04-16T11:58:41;45.23;;;24.40;;
5428;SDS011;2737;52.386;9.980;2023-04-16T12:01:10;40.50;;;23.53;;
5428;SDS011;2737;52.386;9.980;2023-04-16T12:03:40;39.17;;;23.07;;
5428;SDS011;2737;52.386;9.980;2023-04-16T12:06:10;41.30;;;24.10;;
5428;SDS011;2737;52.386;9.980;2023-04-16T12:08:37;37.37;;;23.70;;
5428;SDS011;2737;52.386;9.980;2023-04-16T12:11:04;37.63;;;23.67;;
5428;SDS011;2737;52.386;9.980;2023-04-16T12:13:31;36.50;;;22.50;;
5428;SDS011;2737;52.386;9.980;2023-04-16T12:16:06;37.23;;;23.80;;
5428;SDS011;2737;52.386;9.980;2023-04-16T12:19:00;37.97;;;24.60;;
5428;SDS011;2737;52.386;9.980;2023-04-16T12:21:38;38.43;;;23.70;;
5428;SDS011;2737;52.386;9.980;2023-04-16T12:24:06;44.13;;;25.10;;
5428;SDS011;2737;52.386;9.980;2023-04-16T12:26:38;42.60;;;23.23;;
5428;SDS011;2737;52.386;9.980;2023-04-16T12:29:13;45.67;;;28.10;;
5428;SDS011;2737;52.386;9.980;2023-04-16T12:31:42;55.87;;;29.57;;
5428;SDS011;2737;52.386;9.980;2023-04-16T12:34:09;45.30;;;27.20;;
5428;SDS011;2737;52.386;9.980;2023-04-16T12:36:36;50.03;;;27.70;;
5428;SDS011;2737;52.386;9.980;2023-04-16T12:39:03;48.00;;;27.50;;
5428;SDS011;2737;52.386;9.980;2023-04-16T12:41:31;59.83;;;32.33;;
5428;SDS011;2737;52.386;9.980;2023-04-16T12:44:06;41.83;;;26.70;;
5428;SDS011;2737;52.386;9.980;2023-04-16T12:46:36;41.60;;;26.90;;
5428;SDS011;2737;52.386;9.980;2023-04-16T12:49:05;47.67;;;27.70;;
5428;SDS011;2737;52.386;9.980;2023-04-16T12:51:33;40.40;;;25.70;;
5428;SDS011;2737;52.386;9.980;2023-04-16T12:54:01;45.20;;;27.07;;
5428;SDS011;2737;52.386;9.980;2023-04-16T12:56:29;55.40;;;30.90;;
5428;SDS011;2737;52.386;9.980;2023-04-16T12:58:56;44.83;;;27.17;;
5428;SDS011;2737;52.386;9.980;2023-04-16T13:01:23;48.20;;;27.57;;
5428;SDS011;2737;52.386;9.980;2023-04-16T13:03:50;42.37;;;26.00;;
5428;SDS011;2737;52.386;9.980;2023-04-16T13:06:19;42.43;;;25.03;;
5428;SDS011;2737;52.386;9.980;2023-04-16T13:08:46;40.90;;;24.93;;
5428;SDS011;2737;52.386;9.980;2023-04-16T13:11:13;41.00;;;25.57;;
5428;SDS011;2737;52.386;9.980;2023-04-16T13:13:40;50.73;;;29.23;;
5428;SDS011;2737;52.386;9.980;2023-04-16T13:16:07;36.70;;;24.83;;
5428;SDS011;2737;52.386;9.980;2023-04-16T13:18:35;38.00;;;24.70;;
5428;SDS011;2737;52.386;9.980;2023-04-16T13:21:03;37.97;;;25.13;;
5428;SDS011;2737;52.386;9.980;2023-04-16T13:23:31;46.53;;;24.87;;
5428;SDS011;2737;52.386;9.980;2023-04-16T13:25:59;45.60;;;24.30;;
5428;SDS011;2737;52.386;9.980;2023-04-16T13:28:26;43.63;;;24.57;;
5428;SDS011;2737;52.386;9.980;2023-04-16T13:30:53;37.63;;;24.70;;
5428;SDS011;2737;52.386;9.980;2023-04-16T13:33:20;35.63;;;23.00;;
5428;SDS011;2737;52.386;9.980;2023-04-16T13:35:48;36.73;;;23.10;;
5428;SDS011;2737;52.386;9.980;2023-04-16T13:38:15;39.67;;;23.67;;
5428;SDS011;2737;52.386;9.980;2023-04-16T13:40:44;35.40;;;22.57;;
5428;SDS011;2737;52.386;9.980;2023-04-16T13:43:11;35.83;;;21.50;;
5428;SDS011;2737;52.386;9.980;2023-04-16T13:45:40;34.33;;;19.67;;
5428;SDS011;2737;52.386;9.980;2023-04-16T13:48:07;25.20;;;17.23;;
5428;SDS011;2737;52.386;9.980;2023-04-16T13:50:35;26.00;;;16.90;;
5428;SDS011;2737;52.386;9.980;2023-04-16T13:53:02;22.97;;;16.30;;
5428;SDS011;2737;52.386;9.980;2023-04-16T13:55:29;31.80;;;16.43;;
5428;SDS011;2737;52.386;9.980;2023-04-16T13:57:58;23.00;;;15.53;;
5428;SDS011;2737;52.386;9.980;2023-04-16T14:00:25;24.17;;;14.00;;
5428;SDS011;2737;52.386;9.980;2023-04-16T14:02:52;20.33;;;13.17;;
5428;SDS011;2737;52.386;9.980;2023-04-16T14:05:19;16.77;;;11.63;;
5428;SDS011;2737;52.386;9.980;2023-04-16T14:07:47;19.30;;;11.73;;
5428;SDS011;2737;52.386;9.980;2023-04-16T14:10:14;13.87;;;10.10;;
5428;SDS011;2737;52.386;9.980;2023-04-16T14:12:41;15.13;;;9.37;;
5428;SDS011;2737;52.386;9.980;2023-04-16T14:15:10;17.53;;;9.60;;
5428;SDS011;2737;52.386;9.980;2023-04-16T14:17:38;19.57;;;10.43;;
5428;SDS011;2737;52.386;9.980;2023-04-16T14:20:07;18.63;;;11.63;;
5428;SDS011;2737;52.386;9.980;2023-04-16T14:22:35;15.93;;;10.63;;
5428;SDS011;2737;52.386;9.980;2023-04-16T14:25:02;18.23;;;10.43;;
5428;SDS011;2737;52.386;9.980;2023-04-16T14:27:29;16.70;;;10.20;;
5428;SDS011;2737;52.386;9.980;2023-04-16T14:29:56;14.90;;;9.87;;
5428;SDS011;2737;52.386;9.980;2023-04-16T14:32:25;21.30;;;11.90;;
5428;SDS011;2737;52.386;9.980;2023-04-16T14:34:52;17.20;;;9.23;;
5428;SDS011;2737;52.386;9.980;2023-04-16T14:37:19;17.40;;;9.53;;
5428;SDS011;2737;52.386;9.980;2023-04-16T14:39:46;11.90;;;8.80;;
5428;SDS011;2737;52.386;9.980;2023-04-16T14:42:13;14.37;;;8.43;;
5428;SDS011;2737;52.386;9.980;2023-04-16T14:44:40;13.93;;;9.40;;
5428;SDS011;2737;52.386;9.980;2023-04-16T14:47:07;18.60;;;9.47;;
5428;SDS011;2737;52.386;9.980;2023-04-16T14:49:36;14.23;;;8.93;;
5428;SDS011;2737;52.386;9.980;2023-04-16T14:52:04;13.13;;;9.07;;